sensor_id;sensor_type;location;lat;lon;timestamp;pressure;altitude;pressure_sealevel;temperature;humidity
5298;BME280;14738;42.668;23.250;2022-07-06T00:02:00;48422.06;;;-141.90;100.00
5298;BME280;14738;42.668;23.250;2022-07-06T00:04:26;48414.13;;;-141.90;100.00
5298;BME280;14738;42.668;23.250;2022-07-06T00:06:51;48426.03;;;-141.90;100.00
5298;BME280;14738;42.668;23.250;2022-07-06T00:09:17;48414.13;;;-141.90;100.00
5298;BME280;14738;42.668;23.250;2022-07-06T00:11:42;48432.00;;;-141.90;100.00
5298;BME280;14738;42.668;23.250;2022-07-06T00:14:08;48433.97;;;-141.90;100.00
5298;BME280;14738;42.668;23.250;2022-07-06T00:16:33;48447.88;;;-141.90;100.00
5298;BME280;14738;42.668;23.250;2022-07-06T00:18:58;48439.94;;;-141.90;100.00
5298;BME280;14738;42.668;23.250;2022-07-06T00:21:24;48457.81;;;-141.90;100.00
5298;BME280;14738;42.668;23.250;2022-07-06T00:23:49;48420.09;;;-141.90;100.00
5298;BME280;14738;42.668;23.250;2022-07-06T00:26:17;48457.81;;;-141.90;100.00
5298;BME280;14738;42.668;23.250;2022-07-06T00:28:43;48428.03;;;-141.90;100.00
5298;BME280;14738;42.668;23.250;2022-07-06T00:31:08;48418.09;;;-141.90;100.00
5298;BME280;14738;42.668;23.250;2022-07-06T00:33:34;48430.00;;;-141.90;100.00
5298;BME280;14738;42.668;23.250;2022-07-06T00:35:59;48414.13;;;-141.90;100.00
5298;BME280;14738;42.668;23.250;2022-07-06T00:38:24;48406.19;;;-141.90;100.00
5298;BME280;14738;42.668;23.250;2022-07-06T00:40:50;48406.19;;;-141.90;100.00
5298;BME280;14738;42.668;23.250;2022-07-06T00:43:16;48410.16;;;-141.90;100.00
5298;BME280;14738;42.668;23.250;2022-07-06T00:45:41;48422.06;;;-141.90;100.00
5298;BME280;14738;42.668;23.250;2022-07-06T00:48:06;48412.13;;;-141.90;100.00
5298;BME280;14738;42.668;23.250;2022-07-06T00:50:33;48430.00;;;-141.90;100.00
5298;BME280;14738;42.668;23.250;2022-07-06T00:53:00;48402.22;;;-141.90;100.00
5298;BME280;14738;42.668;23.250;2022-07-06T00:55:29;48392.28;;;-141.90;100.00
5298;BME280;14738;42.668;23.250;2022-07-06T00:57:55;48437.94;;;-141.90;100.00
5298;BME280;14738;42.668;23.250;2022-07-06T01:00:26;48426.03;;;-141.90;100.00
5298;BME280;14738;42.668;23.250;2022-07-06T01:02:53;48430.00;;;-141.90;100.00
5298;BME280;14738;42.668;23.250;2022-07-06T01:05:19;48430.00;;;-141.90;100.00
5298;BME280;14738;42.668;23.250;2022-07-06T01:07:46;48439.94;;;-141.90;100.00
5298;BME280;14738;42.668;23.250;2022-07-06T01:10:13;48414.13;;;-141.90;100.00
5298;BME280;14738;42.668;23.250;2022-07-06T01:12:41;48447.88;;;-141.90;100.00
5298;BME280;14738;42.668;23.250;2022-07-06T01:15:10;48433.97;;;-141.90;100.00
5298;BME280;14738;42.668;23.250;2022-07-06T01:17:39;48426.03;;;-141.90;100.00
5298;BME280;14738;42.668;23.250;2022-07-06T01:20:16;48420.09;;;-141.90;100.00
5298;BME280;14738;42.668;23.250;2022-07-06T01:22:42;48414.13;;;-141.90;100.00
5298;BME280;14738;42.668;23.250;2022-07-06T01:25:08;48437.94;;;-141.90;100.00
5298;BME280;14738;42.668;23.250;2022-07-06T01:27:35;48420.09;;;-141.90;100.00
5298;BME280;14738;42.668;23.250;2022-07-06T01:30:14;48430.00;;;-141.90;100.00
5298;BME280;14738;42.668;23.250;2022-07-06T01:32:40;48428.03;;;-141.90;100.00
5298;BME280;14738;42.668;23.250;2022-07-06T01:35:08;48402.22;;;-141.90;100.00
5298;BME280;14738;42.668;23.250;2022-07-06T01:37:34;48410.16;;;-141.90;100.00
5298;BME280;14738;42.668;23.250;2022-07-06T01:40:04;48426.03;;;-141.90;100.00
5298;BME280;14738;42.668;23.250;2022-07-06T01:42:30;48430.00;;;-141.90;100.00
5298;BME280;14738;42.668;23.250;2022-07-06T01:44:56;48433.97;;;-141.90;100.00
5298;BME280;14738;42.668;23.250;2022-07-06T01:47:21;48418.09;;;-141.90;100.00
5298;BME280;14738;42.668;23.250;2022-07-06T01:49:47;48402.22;;;-141.90;100.00
5298;BME280;14738;42.668;23.250;2022-07-06T01:52:12;48404.19;;;-141.90;100.00
5298;BME280;14738;42.668;23.250;2022-07-06T01:54:38;48406.19;;;-141.90;100.00
5298;BME280;14738;42.668;23.250;2022-07-06T01:57:03;48430.00;;;-141.90;100.00
5298;BME280;14738;42.668;23.250;2022-07-06T01:59:29;48430.00;;;-141.90;100.00
5298;BME280;14738;42.668;23.250;2022-07-06T02:01:54;48418.09;;;-141.90;100.00
5298;BME280;14738;42.668;23.250;2022-07-06T02:04:20;48406.19;;;-141.90;100.00
5298;BME280;14738;42.668;23.250;2022-07-06T02:06:45;48420.09;;;-141.90;100.00
5298;BME280;14738;42.668;23.250;2022-07-06T02:09:11;48406.19;;;-141.90;100.00
5298;BME280;14738;42.668;23.250;2022-07-06T02:11:36;48380.38;;;-141.90;100.00
5298;BME280;14738;42.668;23.250;2022-07-06T02:14:01;48414.13;;;-141.90;100.00
5298;BME280;14738;42.668;23.250;2022-07-06T02:16:27;48433.97;;;-141.90;100.00
5298;BME280;14738;42.668;23.250;2022-07-06T02:18:52;48394.28;;;-141.90;100.00
5298;BME280;14738;42.668;23.250;2022-07-06T02:21:18;48406.19;;;-141.90;100.00
5298;BME280;14738;42.668;23.250;2022-07-06T02:23:43;48406.19;;;-141.90;100.00
5298;BME280;14738;42.668;23.250;2022-07-06T02:26:09;48437.94;;;-141.90;100.00
5298;BME280;14738;42.668;23.250;2022-07-06T02:28:34;48428.03;;;-141.90;100.00
5298;BME280;14738;42.668;23.250;2022-07-06T02:31:00;48426.03;;;-141.90;100.00
5298;BME280;14738;42.668;23.250;2022-07-06T02:33:25;48426.03;;;-141.90;100.00
5298;BME280;14738;42.668;23.250;2022-07-06T02:35:51;48386.34;;;-141.90;100.00
5298;BME280;14738;42.668;23.250;2022-07-06T02:38:16;48418.09;;;-141.90;100.00
5298;BME280;14738;42.668;23.250;2022-07-06T02:40:42;48416.09;;;-141.90;100.00
5298;BME280;14738;42.668;23.250;2022-07-06T02:43:07;48433.97;;;-141.90;100.00
5298;BME280;14738;42.668;23.250;2022-07-06T02:45:32;48441.91;;;-141.90;100.00
5298;BME280;14738;42.668;23.250;2022-07-06T02:47:58;48443.91;;;-141.90;100.00
5298;BME280;14738;42.668;23.250;2022-07-06T02:50:24;48447.88;;;-141.90;100.00
5298;BME280;14738;42.668;23.250;2022-07-06T02:52:50;48422.06;;;-141.90;100.00
5298;BME280;14738;42.668;23.250;2022-07-06T02:55:15;48408.16;;;-141.90;100.00
5298;BME280;14738;42.668;23.250;2022-07-06T02:57:41;48368.47;;;-141.90;100.00
5298;BME280;14738;42.668;23.250;2022-07-06T03:00:07;48437.94;;;-141.90;100.00
5298;BME280;14738;42.668;23.250;2022-07-06T03:02:33;48418.09;;;-141.90;100.00
5298;BME280;14738;42.668;23.250;2022-07-06T03:04:58;48394.28;;;-141.90;100.00
5298;BME280;14738;42.668;23.250;2022-07-06T03:07:24;48402.22;;;-141.90;100.00
5298;BME280;14738;42.668;23.250;2022-07-06T03:09:49;48408.16;;;-141.90;100.00
5298;BME280;14738;42.668;23.250;2022-07-06T03:12:14;48426.03;;;-141.90;100.00
5298;BME280;14738;42.668;23.250;2022-07-06T03:14:41;48390.31;;;-141.90;100.00
5298;BME280;14738;42.668;23.250;2022-07-06T03:17:07;48428.03;;;-141.90;100.00
5298;BME280;14738;42.668;23.250;2022-07-06T03:19:33;48416.09;;;-141.90;100.00
5298;BME280;14738;42.668;23.250;2022-07-06T03:21:58;48420.09;;;-141.90;100.00
5298;BME280;14738;42.668;23.250;2022-07-06T03:24:24;48437.94;;;-141.90;100.00
5298;BME280;14738;42.668;23.250;2022-07-06T03:26:49;48433.97;;;-141.90;100.00
5298;BME280;14738;42.668;23.250;2022-07-06T03:29:14;48418.09;;;-141.90;100.00
5298;BME280;14738;42.668;23.250;2022-07-06T03:31:40;48441.91;;;-141.90;100.00
5298;BME280;14738;42.668;23.250;2022-07-06T03:34:05;48430.00;;;-141.90;100.00
5298;BME280;14738;42.668;23.250;2022-07-06T03:36:31;48435.97;;;-141.90;100.00
5298;BME280;14738;42.668;23.250;2022-07-06T03:38:57;48435.97;;;-141.90;100.00
5298;BME280;14738;42.668;23.250;2022-07-06T03:41:22;48406.19;;;-141.90;100.00
5298;BME280;14738;42.668;23.250;2022-07-06T03:43:48;48433.97;;;-141.90;100.00
5298;BME280;14738;42.668;23.250;2022-07-06T03:46:13;48414.13;;;-141.90;100.00
5298;BME280;14738;42.668;23.250;2022-07-06T03:48:38;48441.91;;;-141.90;100.00
5298;BME280;14738;42.668;23.250;2022-07-06T03:51:04;48443.91;;;-141.90;100.00
5298;BME280;14738;42.668;23.250;2022-07-06T03:53:30;48445.88;;;-141.90;100.00
5298;BME280;14738;42.668;23.250;2022-07-06T03:55:56;48457.81;;;-141.90;100.00
5298;BME280;14738;42.668;23.250;2022-07-06T03:58:40;48437.94;;;-141.90;100.00
5298;BME280;14738;42.668;23.250;2022-07-06T04:01:05;48445.88;;;-141.90;100.00
5298;BME280;14738;42.668;23.250;2022-07-06T04:03:31;48433.97;;;-141.90;100.00
5298;BME280;14738;42.668;23.250;2022-07-06T04:05:56;48473.69;;;-141.90;100.00
5298;BME280;14738;42.668;23.250;2022-07-06T04:08:21;48428.03;;;-141.90;100.00
5298;BME280;14738;42.668;23.250;2022-07-06T04:10:47;48459.78;;;-141.90;100.00
5298;BME280;14738;42.668;23.250;2022-07-06T04:13:12;48461.78;;;-141.90;100.00
5298;BME280;14738;42.668;23.250;2022-07-06T04:15:38;48467.72;;;-141.90;100.00
5298;BME280;14738;42.668;23.250;2022-07-06T04:18:04;48443.91;;;-141.90;100.00
5298;BME280;14738;42.668;23.250;2022-07-06T04:20:30;48449.84;;;-141.90;100.00
5298;BME280;14738;42.668;23.250;2022-07-06T04:22:55;48447.88;;;-141.90;100.00
5298;BME280;14738;42.668;23.250;2022-07-06T04:25:21;48457.81;;;-141.90;100.00
5298;BME280;14738;42.668;23.250;2022-07-06T04:27:46;48485.59;;;-141.90;100.00
5298;BME280;14738;42.668;23.250;2022-07-06T04:30:12;48461.78;;;-141.90;100.00
5298;BME280;14738;42.668;23.250;2022-07-06T04:32:38;48477.66;;;-141.90;100.00
5298;BME280;14738;42.668;23.250;2022-07-06T04:35:05;48481.63;;;-141.90;100.00
5298;BME280;14738;42.668;23.250;2022-07-06T04:37:31;48471.69;;;-141.90;100.00
5298;BME280;14738;42.668;23.250;2022-07-06T04:39:56;48465.75;;;-141.90;100.00
5298;BME280;14738;42.668;23.250;2022-07-06T04:42:22;48473.69;;;-141.90;100.00
5298;BME280;14738;42.668;23.250;2022-07-06T04:44:47;48489.56;;;-141.90;100.00
5298;BME280;14738;42.668;23.250;2022-07-06T04:47:13;48473.69;;;-141.90;100.00
5298;BME280;14738;42.668;23.250;2022-07-06T04:49:39;48481.63;;;-141.90;100.00
5298;BME280;14738;42.668;23.250;2022-07-06T04:52:04;48465.75;;;-141.90;100.00
5298;BME280;14738;42.668;23.250;2022-07-06T04:54:30;48449.84;;;-141.90;100.00
5298;BME280;14738;42.668;23.250;2022-07-06T04:56:56;48445.88;;;-141.90;100.00
5298;BME280;14738;42.668;23.250;2022-07-06T04:59:21;48469.72;;;-141.90;100.00
5298;BME280;14738;42.668;23.250;2022-07-06T05:01:47;48469.72;;;-141.90;100.00
5298;BME280;14738;42.668;23.250;2022-07-06T05:04:12;48475.66;;;-141.90;100.00
5298;BME280;14738;42.668;23.250;2022-07-06T05:06:38;48489.56;;;-141.90;100.00
5298;BME280;14738;42.668;23.250;2022-07-06T05:09:04;48481.63;;;-141.90;100.00
5298;BME280;14738;42.668;23.250;2022-07-06T05:11:29;48457.81;;;-141.90;100.00
5298;BME280;14738;42.668;23.250;2022-07-06T05:13:55;48473.69;;;-141.90;100.00
5298;BME280;14738;42.668;23.250;2022-07-06T05:16:21;48477.66;;;-141.90;100.00
5298;BME280;14738;42.668;23.250;2022-07-06T05:18:48;48485.59;;;-141.90;100.00
5298;BME280;14738;42.668;23.250;2022-07-06T05:21:13;48511.41;;;-141.90;100.00
5298;BME280;14738;42.668;23.250;2022-07-06T05:23:39;48489.56;;;-141.90;100.00
5298;BME280;14738;42.668;23.250;2022-07-06T05:26:04;48481.63;;;-141.90;100.00
5298;BME280;14738;42.668;23.250;2022-07-06T05:28:30;48503.47;;;-141.90;100.00
5298;BME280;14738;42.668;23.250;2022-07-06T05:30:55;48493.53;;;-141.90;100.00
5298;BME280;14738;42.668;23.250;2022-07-06T05:33:21;48489.56;;;-141.90;100.00
5298;BME280;14738;42.668;23.250;2022-07-06T05:35:46;48501.47;;;-141.90;100.00
5298;BME280;14738;42.668;23.250;2022-07-06T05:38:11;48567.00;;;-141.90;100.00
5298;BME280;14738;42.668;23.250;2022-07-06T05:40:37;48559.06;;;-141.90;100.00
5298;BME280;14738;42.668;23.250;2022-07-06T05:43:03;48549.13;;;-141.90;100.00
5298;BME280;14738;42.668;23.250;2022-07-06T05:45:28;48503.47;;;-141.90;100.00
5298;BME280;14738;42.668;23.250;2022-07-06T05:47:54;48517.34;;;-141.90;100.00
5298;BME280;14738;42.668;23.250;2022-07-06T05:50:38;48533.25;;;-141.90;100.00
5298;BME280;14738;42.668;23.250;2022-07-06T05:53:05;48521.34;;;-141.90;100.00
5298;BME280;14738;42.668;23.250;2022-07-06T05:55:31;48501.47;;;-141.90;100.00
5298;BME280;14738;42.668;23.250;2022-07-06T05:57:57;48517.34;;;-141.90;100.00
5298;BME280;14738;42.668;23.250;2022-07-06T06:00:23;48517.34;;;-141.90;100.00
5298;BME280;14738;42.668;23.250;2022-07-06T06:02:49;48529.28;;;-141.90;100.00
5298;BME280;14738;42.668;23.250;2022-07-06T06:05:15;48543.16;;;-141.90;100.00
5298;BME280;14738;42.668;23.250;2022-07-06T06:07:41;48519.34;;;-141.90;100.00
5298;BME280;14738;42.668;23.250;2022-07-06T06:10:11;48523.31;;;-141.90;100.00
5298;BME280;14738;42.668;23.250;2022-07-06T06:12:37;48517.34;;;-141.90;100.00
5298;BME280;14738;42.668;23.250;2022-07-06T06:15:03;48509.41;;;-141.90;100.00
5298;BME280;14738;42.668;23.250;2022-07-06T06:17:30;48503.47;;;-141.90;100.00
5298;BME280;14738;42.668;23.250;2022-07-06T06:19:55;48485.59;;;-141.90;100.00
5298;BME280;14738;42.668;23.250;2022-07-06T06:22:21;48491.56;;;-141.90;100.00
5298;BME280;14738;42.668;23.250;2022-07-06T06:24:47;48521.34;;;-141.90;100.00
5298;BME280;14738;42.668;23.250;2022-07-06T06:27:12;48517.34;;;-141.90;100.00
5298;BME280;14738;42.668;23.250;2022-07-06T06:29:38;48493.53;;;-141.90;100.00
5298;BME280;14738;42.668;23.250;2022-07-06T06:32:04;48469.72;;;-141.90;100.00
5298;BME280;14738;42.668;23.250;2022-07-06T06:34:31;48481.63;;;-141.90;100.00
5298;BME280;14738;42.668;23.250;2022-07-06T06:36:57;48479.63;;;-141.90;100.00
5298;BME280;14738;42.668;23.250;2022-07-06T06:39:22;48497.50;;;-141.90;100.00
5298;BME280;14738;42.668;23.250;2022-07-06T06:41:47;48481.63;;;-141.90;100.00
5298;BME280;14738;42.668;23.250;2022-07-06T06:44:13;48497.50;;;-141.90;100.00
5298;BME280;14738;42.668;23.250;2022-07-06T06:46:39;48517.34;;;-141.90;100.00
5298;BME280;14738;42.668;23.250;2022-07-06T06:49:05;48628.53;;;-141.90;100.00
5298;BME280;14738;42.668;23.250;2022-07-06T06:51:30;48684.13;;;-141.90;100.00
5298;BME280;14738;42.668;23.250;2022-07-06T06:53:56;48620.59;;;-141.90;100.00
5298;BME280;14738;42.668;23.250;2022-07-06T06:56:21;48580.88;;;-141.90;100.00
5298;BME280;14738;42.668;23.250;2022-07-06T06:58:47;48565.00;;;-141.90;100.00
5298;BME280;14738;42.668;23.250;2022-07-06T07:01:12;48533.25;;;-141.90;100.00
5298;BME280;14738;42.668;23.250;2022-07-06T07:03:37;48527.28;;;-141.90;100.00
5298;BME280;14738;42.668;23.250;2022-07-06T07:06:03;48531.25;;;-141.90;100.00
5298;BME280;14738;42.668;23.250;2022-07-06T07:08:28;48527.28;;;-141.90;100.00
5298;BME280;14738;42.668;23.250;2022-07-06T07:10:54;48513.38;;;-141.90;100.00
5298;BME280;14738;42.668;23.250;2022-07-06T07:13:19;48509.41;;;-141.90;100.00
5298;BME280;14738;42.668;23.250;2022-07-06T07:15:45;48529.28;;;-141.90;100.00
5298;BME280;14738;42.668;23.250;2022-07-06T07:18:10;48521.34;;;-141.90;100.00
5298;BME280;14738;42.668;23.250;2022-07-06T07:20:36;48507.44;;;-141.90;100.00
5298;BME280;14738;42.668;23.250;2022-07-06T07:23:02;48547.13;;;-141.90;100.00
5298;BME280;14738;42.668;23.250;2022-07-06T07:25:27;48553.09;;;-141.90;100.00
5298;BME280;14738;42.668;23.250;2022-07-06T07:27:54;48539.19;;;-141.90;100.00
5298;BME280;14738;42.668;23.250;2022-07-06T07:30:20;48555.09;;;-141.90;100.00
5298;BME280;14738;42.668;23.250;2022-07-06T07:32:45;48545.16;;;-141.90;100.00
5298;BME280;14738;42.668;23.250;2022-07-06T07:35:11;48549.13;;;-141.90;100.00
5298;BME280;14738;42.668;23.250;2022-07-06T07:37:37;48533.25;;;-141.90;100.00
5298;BME280;14738;42.668;23.250;2022-07-06T07:40:03;48576.91;;;-141.90;100.00
5298;BME280;14738;42.668;23.250;2022-07-06T07:42:29;48543.16;;;-141.90;100.00
5298;BME280;14738;42.668;23.250;2022-07-06T07:44:55;48557.06;;;-141.90;100.00
5298;BME280;14738;42.668;23.250;2022-07-06T07:47:20;48570.97;;;-141.90;100.00
5298;BME280;14738;42.668;23.250;2022-07-06T07:49:46;48616.63;;;-141.90;100.00
5298;BME280;14738;42.668;23.250;2022-07-06T07:52:11;48608.69;;;-141.90;100.00
5298;BME280;14738;42.668;23.250;2022-07-06T07:54:37;48614.63;;;-141.90;100.00
5298;BME280;14738;42.668;23.250;2022-07-06T07:57:03;48622.59;;;-141.90;100.00
5298;BME280;14738;42.668;23.250;2022-07-06T07:59:28;48604.72;;;-141.90;100.00
5298;BME280;14738;42.668;23.250;2022-07-06T08:01:54;48640.44;;;-141.90;100.00
5298;BME280;14738;42.668;23.250;2022-07-06T08:04:19;48640.44;;;-141.90;100.00
5298;BME280;14738;42.668;23.250;2022-07-06T08:06:45;48616.63;;;-141.90;100.00
5298;BME280;14738;42.668;23.250;2022-07-06T08:09:10;48644.41;;;-141.90;100.00
5298;BME280;14738;42.668;23.250;2022-07-06T08:11:36;48648.38;;;-141.90;100.00
5298;BME280;14738;42.668;23.250;2022-07-06T08:14:04;48666.25;;;-141.90;100.00
5298;BME280;14738;42.668;23.250;2022-07-06T08:16:30;48642.44;;;-141.90;100.00
5298;BME280;14738;42.668;23.250;2022-07-06T08:18:56;48688.09;;;-141.90;100.00
5298;BME280;14738;42.668;23.250;2022-07-06T08:21:22;48731.78;;;-141.90;100.00
5298;BME280;14738;42.668;23.250;2022-07-06T08:23:47;48749.66;;;-141.90;100.00
5298;BME280;14738;42.668;23.250;2022-07-06T08:26:13;48731.78;;;-141.90;41.44
5298;BME280;14738;42.668;23.250;2022-07-06T08:28:39;48707.94;;;-141.90;41.11
5298;BME280;14738;42.668;23.250;2022-07-06T08:31:04;48684.13;;;-141.90;41.60
5298;BME280;14738;42.668;23.250;2022-07-06T08:33:30;48692.06;;;-141.90;42.43
5298;BME280;14738;42.668;23.250;2022-07-06T08:35:55;48680.16;;;-141.90;43.42
5298;BME280;14738;42.668;23.250;2022-07-06T08:38:21;48707.94;;;-141.90;42.97
5298;BME280;14738;42.668;23.250;2022-07-06T08:40:48;48686.13;;;-141.90;44.80
5298;BME280;14738;42.668;23.250;2022-07-06T08:43:14;48702.00;;;-141.90;42.65
5298;BME280;14738;42.668;23.250;2022-07-06T08:45:40;48686.13;;;-141.90;43.01
5298;BME280;14738;42.668;23.250;2022-07-06T08:48:09;48741.69;;;-141.90;41.95
5298;BME280;14738;42.668;23.250;2022-07-06T08:50:34;48763.53;;;-141.90;41.64
5298;BME280;14738;42.668;23.250;2022-07-06T08:53:00;48727.81;;;-141.90;41.01
5298;BME280;14738;42.668;23.250;2022-07-06T08:55:27;48719.88;;;-141.90;42.59
5298;BME280;14738;42.668;23.250;2022-07-06T08:57:54;48773.47;;;-141.90;41.57
5298;BME280;14738;42.668;23.250;2022-07-06T09:00:24;48757.59;;;-141.90;41.23
5298;BME280;14738;42.668;23.250;2022-07-06T09:02:50;48684.13;;;-141.90;42.01
5298;BME280;14738;42.668;23.250;2022-07-06T09:05:17;48696.03;;;-141.90;43.25
5298;BME280;14738;42.668;23.250;2022-07-06T09:07:45;48721.84;;;-141.90;42.15
5298;BME280;14738;42.668;23.250;2022-07-06T09:10:15;48747.66;;;-141.90;41.96
5298;BME280;14738;42.668;23.250;2022-07-06T09:12:42;48771.47;;;-141.90;40.28
5298;BME280;14738;42.668;23.250;2022-07-06T09:15:07;48755.59;;;-141.90;39.30
5298;BME280;14738;42.668;23.250;2022-07-06T09:17:37;48759.56;;;-141.90;38.95
5298;BME280;14738;42.668;23.250;2022-07-06T09:20:06;48731.78;;;-141.90;39.97
5298;BME280;14738;42.668;23.250;2022-07-06T09:22:33;48709.94;;;-141.90;41.04
5298;BME280;14738;42.668;23.250;2022-07-06T09:25:13;48676.19;;;-141.90;42.51
5298;BME280;14738;42.668;23.250;2022-07-06T09:27:45;48688.09;;;-141.90;42.67
5298;BME280;14738;42.668;23.250;2022-07-06T09:30:15;48680.16;;;-141.90;41.53
5298;BME280;14738;42.668;23.250;2022-07-06T09:32:47;48692.06;;;-141.90;41.12
5298;BME280;14738;42.668;23.250;2022-07-06T09:35:30;48735.75;;;-141.90;42.02
5298;BME280;14738;42.668;23.250;2022-07-06T09:38:05;48705.97;;;-141.90;41.24
5298;BME280;14738;42.668;23.250;2022-07-06T09:40:33;48692.06;;;-141.90;40.94
5298;BME280;14738;42.668;23.250;2022-07-06T09:43:19;48698.03;;;-141.90;43.10
5298;BME280;14738;42.668;23.250;2022-07-06T09:45:55;48715.91;;;-141.90;40.37
5298;BME280;14738;42.668;23.250;2022-07-06T09:48:23;48727.81;;;-141.90;41.24
5298;BME280;14738;42.668;23.250;2022-07-06T09:50:59;48723.84;;;-141.90;39.25
5298;BME280;14738;42.668;23.250;2022-07-06T09:53:27;48773.47;;;-141.90;39.80
5298;BME280;14738;42.668;23.250;2022-07-06T09:55:54;48779.44;;;-141.90;39.24
5298;BME280;14738;42.668;23.250;2022-07-06T09:58:21;48700.00;;;-141.90;39.37
5298;BME280;14738;42.668;23.250;2022-07-06T10:00:48;48700.00;;;-141.90;39.96
5298;BME280;14738;42.668;23.250;2022-07-06T10:03:15;48672.22;;;-141.90;39.67
5298;BME280;14738;42.668;23.250;2022-07-06T10:05:42;48702.00;;;-141.90;40.52
5298;BME280;14738;42.668;23.250;2022-07-06T10:08:09;48707.94;;;-141.90;41.26
5298;BME280;14738;42.668;23.250;2022-07-06T10:10:36;48711.91;;;-141.90;41.26
5298;BME280;14738;42.668;23.250;2022-07-06T10:13:03;48703.97;;;-141.90;42.11
5298;BME280;14738;42.668;23.250;2022-07-06T10:15:32;48672.22;;;-141.90;40.40
5298;BME280;14738;42.668;23.250;2022-07-06T10:17:59;48684.13;;;-141.90;41.42
5298;BME280;14738;42.668;23.250;2022-07-06T10:20:27;48707.94;;;-141.90;40.67
5298;BME280;14738;42.668;23.250;2022-07-06T10:22:54;48670.22;;;-141.90;42.48
5298;BME280;14738;42.668;23.250;2022-07-06T10:25:23;48739.72;;;-141.90;41.51
5298;BME280;14738;42.668;23.250;2022-07-06T10:27:49;48733.75;;;-141.90;41.15
5298;BME280;14738;42.668;23.250;2022-07-06T10:30:15;48713.91;;;-141.90;39.89
5298;BME280;14738;42.668;23.250;2022-07-06T10:32:42;48739.72;;;-141.90;39.17
5298;BME280;14738;42.668;23.250;2022-07-06T10:35:08;48709.94;;;-141.90;40.21
5298;BME280;14738;42.668;23.250;2022-07-06T10:37:34;48644.41;;;-141.90;42.43
5298;BME280;14738;42.668;23.250;2022-07-06T10:40:00;48696.03;;;-141.90;41.56
5298;BME280;14738;42.668;23.250;2022-07-06T10:42:46;48725.81;;;-141.90;40.77
5298;BME280;14738;42.668;23.250;2022-07-06T10:50:39;48719.88;;;-141.90;40.22
5298;BME280;14738;42.668;23.250;2022-07-06T10:53:12;48711.91;;;-141.90;40.49
5298;BME280;14738;42.668;23.250;2022-07-06T10:55:39;48727.81;;;-141.90;39.61
5298;BME280;14738;42.668;23.250;2022-07-06T10:58:06;48698.03;;;-141.90;39.60
5298;BME280;14738;42.668;23.250;2022-07-06T11:03:35;48666.25;;;-141.90;38.67
5298;BME280;14738;42.668;23.250;2022-07-06T11:06:04;48700.00;;;-141.90;38.75
5298;BME280;14738;42.668;23.250;2022-07-06T11:19:14;48711.91;;;-141.90;38.97
5298;BME280;14738;42.668;23.250;2022-07-06T11:21:47;48676.19;;;-141.90;39.71
5298;BME280;14738;42.668;23.250;2022-07-06T11:24:15;48690.09;;;-141.90;38.94
5298;BME280;14738;42.668;23.250;2022-07-06T11:26:43;48705.97;;;-141.90;39.82
5298;BME280;14738;42.668;23.250;2022-07-06T11:29:10;48717.88;;;-141.90;39.81
5298;BME280;14738;42.668;23.250;2022-07-06T11:31:40;48715.91;;;-141.90;39.27
5298;BME280;14738;42.668;23.250;2022-07-06T11:34:07;48690.09;;;-141.90;38.83
5298;BME280;14738;42.668;23.250;2022-07-06T11:36:34;48672.22;;;-141.90;39.27
5298;BME280;14738;42.668;23.250;2022-07-06T11:39:00;48674.19;;;-141.90;36.83
5298;BME280;14738;42.668;23.250;2022-07-06T11:41:25;48642.44;;;-141.90;39.65
5298;BME280;14738;42.668;23.250;2022-07-06T11:43:51;48636.47;;;-141.90;39.25
5298;BME280;14738;42.668;23.250;2022-07-06T11:46:30;48628.53;;;-141.90;40.12
5298;BME280;14738;42.668;23.250;2022-07-06T11:48:58;48682.13;;;-141.90;39.85
5298;BME280;14738;42.668;23.250;2022-07-06T11:51:26;48644.41;;;-141.90;39.23
5298;BME280;14738;42.668;23.250;2022-07-06T11:53:57;48676.19;;;-141.90;38.90
5298;BME280;14738;42.668;23.250;2022-07-06T11:56:25;48672.22;;;-141.90;38.93
5298;BME280;14738;42.668;23.250;2022-07-06T11:58:57;48670.22;;;-141.90;38.33
5298;BME280;14738;42.668;23.250;2022-07-06T12:01:24;48696.03;;;-141.90;39.82
5298;BME280;14738;42.668;23.250;2022-07-06T12:03:51;48692.06;;;-141.90;39.70
5298;BME280;14738;42.668;23.250;2022-07-06T12:06:22;48688.09;;;-141.90;38.75
5298;BME280;14738;42.668;23.250;2022-07-06T12:08:55;48642.44;;;-141.90;38.79
5298;BME280;14738;42.668;23.250;2022-07-06T12:11:30;48668.25;;;-141.90;40.77
5298;BME280;14738;42.668;23.250;2022-07-06T12:13:58;48652.38;;;-141.90;41.31
5298;BME280;14738;42.668;23.250;2022-07-06T12:16:35;48672.22;;;-141.90;40.47
5298;BME280;14738;42.668;23.250;2022-07-06T12:19:04;48684.13;;;-141.90;39.85
5298;BME280;14738;42.668;23.250;2022-07-06T12:21:31;48636.47;;;-141.90;39.95
5298;BME280;14738;42.668;23.250;2022-07-06T12:23:57;48642.44;;;-141.90;40.12
5298;BME280;14738;42.668;23.250;2022-07-06T12:26:25;48656.34;;;-141.90;39.71
5298;BME280;14738;42.668;23.250;2022-07-06T12:29:05;48682.13;;;-141.90;40.58
5298;BME280;14738;42.668;23.250;2022-07-06T12:31:35;48646.41;;;-141.90;40.03
5298;BME280;14738;42.668;23.250;2022-07-06T12:34:01;48646.41;;;-141.90;40.48
5298;BME280;14738;42.668;23.250;2022-07-06T12:36:27;48616.63;;;-141.90;40.61
5298;BME280;14738;42.668;23.250;2022-07-06T12:38:53;48676.19;;;-141.90;38.70
5298;BME280;14738;42.668;23.250;2022-07-06T12:41:30;48680.16;;;-141.90;38.91
5298;BME280;14738;42.668;23.250;2022-07-06T12:44:02;48670.22;;;-141.90;39.86
5298;BME280;14738;42.668;23.250;2022-07-06T12:46:33;48686.13;;;-141.90;38.70
5298;BME280;14738;42.668;23.250;2022-07-06T12:49:00;48672.22;;;-141.90;39.66
5298;BME280;14738;42.668;23.250;2022-07-06T12:51:26;48656.34;;;-141.90;40.27